Terminal Aerodrome Forecast
Issued by NWS

Home | Current Version | Previous Version | Text Only | Print | Product List | Glossary On
Versions: 1 2 3 4 5 6 7 8 9 10 11 12 13 14 15
000
FTUS44 KLZK 161000 AAA
TAFADF
TAF AMD
KADF 161021Z 1610/1706 00000KT 5SM BR SCT050 OVC100
      TEMPO 1610/1614 2SM BR BKN050
     FM161500 06004KT P6SM SCT025 BKN060
     FM161900 06004KT P6SM SCT035 SCT250
     FM170100 10003KT P6SM SCT250=

USA.gov is the U.S. government's official web portal to all federal, state and local government web resources and services.